createdAt,value
2022-12-04T00:02:22.882Z,59.33
2022-12-04T00:04:49.484Z,52.25
2022-12-04T00:07:16.034Z,53.13
2022-12-04T00:09:42.450Z,59.08
2022-12-04T00:12:08.856Z,55.15
2022-12-04T00:14:49.090Z,56.15
2022-12-04T00:17:21.832Z,55.72
2022-12-04T00:19:48.138Z,53.47
2022-12-04T00:22:14.958Z,54.83
2022-12-04T00:24:41.280Z,53.22
2022-12-04T00:27:07.595Z,58.55
2022-12-04T00:29:33.902Z,57.30
2022-12-04T00:32:00.270Z,59.97
2022-12-04T00:34:28.275Z,62.05
2022-12-04T00:36:54.585Z,56.50
2022-12-04T00:39:21.069Z,51.38
2022-12-04T00:41:47.357Z,53.53
2022-12-04T00:44:13.783Z,55.83
2022-12-04T00:46:40.116Z,58.13
2022-12-04T00:49:06.488Z,59.60
2022-12-04T00:51:32.811Z,56.30
2022-12-04T00:53:59.101Z,55.17
2022-12-04T00:56:26.377Z,59.35
2022-12-04T00:58:53.546Z,59.60
2022-12-04T01:01:20.948Z,55.08
2022-12-04T01:03:47.672Z,63.38
2022-12-04T01:06:24.148Z,61.45
2022-12-04T01:08:51.363Z,62.60
2022-12-04T01:11:18.151Z,60.80
2022-12-04T01:13:44.827Z,58.25
2022-12-04T01:16:18.609Z,63.58
2022-12-04T01:18:45.129Z,67.85
2022-12-04T01:21:11.908Z,57.00
2022-12-04T01:23:38.253Z,59.67
2022-12-04T01:26:04.649Z,58.05
2022-12-04T01:28:31.055Z,58.25
2022-12-04T01:31:01.800Z,57.42
2022-12-04T01:33:28.541Z,59.15
2022-12-04T01:35:56.198Z,56.15
2022-12-04T01:38:22.923Z,61.75
2022-12-04T01:40:49.446Z,57.78
2022-12-04T01:43:16.440Z,56.50
2022-12-04T01:45:43.972Z,59.17
2022-12-04T01:48:32.486Z,59.08
2022-12-04T01:51:07.469Z,58.67
2022-12-04T01:53:35.013Z,59.17
2022-12-04T01:56:02.465Z,60.83
2022-12-04T01:58:31.731Z,62.80
2022-12-04T02:01:03.705Z,62.78
2022-12-04T02:03:33.381Z,58.42
2022-12-04T02:05:59.853Z,62.72
2022-12-04T02:08:26.970Z,62.15
2022-12-04T02:11:10.760Z,61.63
2022-12-04T02:13:57.420Z,54.55
2022-12-04T02:16:26.952Z,63.03
2022-12-04T02:19:14.413Z,56.03
2022-12-04T02:21:43.392Z,54.28
2022-12-04T02:24:18.736Z,59.10
2022-12-04T02:26:45.140Z,61.35
2022-12-04T02:29:17.535Z,61.55
2022-12-04T02:31:59.405Z,59.05
2022-12-04T02:34:28.231Z,55.78
2022-12-04T02:37:06.267Z,55.42
2022-12-04T02:39:44.438Z,62.95
2022-12-04T02:42:13.441Z,61.33
2022-12-04T02:44:43.954Z,64.00
2022-12-04T02:47:12.747Z,62.53
2022-12-04T02:49:43.181Z,54.55
2022-12-04T02:52:10.980Z,55.70
2022-12-04T02:54:41.324Z,59.50
2022-12-04T02:57:23.219Z,53.92
2022-12-04T02:59:50.591Z,61.63
2022-12-04T03:02:25.422Z,56.33
2022-12-04T03:04:53.427Z,58.40
2022-12-04T03:07:24.941Z,55.35
2022-12-04T03:09:54.942Z,58.45
2022-12-04T03:12:27.372Z,61.22
2022-12-04T03:15:12.228Z,57.28
2022-12-04T03:17:45.854Z,55.58
2022-12-04T03:20:14.333Z,58.72
2022-12-04T03:22:42.341Z,62.28
2022-12-04T03:25:08.983Z,57.58
2022-12-04T03:27:40.844Z,60.30
2022-12-04T03:30:11.490Z,56.75
2022-12-04T03:32:43.853Z,58.17
2022-12-04T03:35:16.619Z,56.58
2022-12-04T03:37:43.024Z,60.88
2022-12-04T03:40:15.384Z,62.38
2022-12-04T03:43:07.948Z,54.65
2022-12-04T03:45:41.879Z,58.03
2022-12-04T03:48:12.575Z,61.00
2022-12-04T03:50:42.666Z,57.53
2022-12-04T03:53:25.671Z,61.38
2022-12-04T03:55:54.496Z,54.10
2022-12-04T03:58:23.731Z,59.15
2022-12-04T04:00:53.938Z,63.85
2022-12-04T04:03:22.561Z,57.53
2022-12-04T04:05:53.015Z,56.75
2022-12-04T04:08:29.448Z,60.05
2022-12-04T04:10:59.319Z,60.13
2022-12-04T04:13:46.978Z,60.10
2022-12-04T04:16:35.067Z,56.35
2022-12-04T04:19:20.898Z,56.75
2022-12-04T04:22:07.354Z,58.13
2022-12-04T04:24:40.558Z,62.80
2022-12-04T04:27:06.938Z,60.63
2022-12-04T04:29:33.447Z,64.05
2022-12-04T04:32:03.811Z,59.20
2022-12-04T04:34:39.133Z,57.72
2022-12-04T04:37:16.676Z,56.03
2022-12-04T04:39:42.931Z,51.90
2022-12-04T04:42:13.406Z,57.58
2022-12-04T04:44:48.736Z,54.72
2022-12-04T04:47:28.811Z,53.03
2022-12-04T04:49:56.278Z,52.30
2022-12-04T04:52:23.637Z,60.97
2022-12-04T04:54:50.099Z,61.15
2022-12-04T04:57:30.196Z,57.80
2022-12-04T04:59:56.887Z,57.43
2022-12-04T05:02:25.663Z,57.28
2022-12-04T05:04:52.079Z,60.13
2022-12-04T05:07:18.416Z,55.75
2022-12-04T05:09:44.723Z,63.88
2022-12-04T05:12:11.059Z,60.42
2022-12-04T05:14:37.392Z,60.95
2022-12-04T05:17:12.378Z,58.92
2022-12-04T05:19:54.701Z,56.90
2022-12-04T05:22:23.248Z,63.85
2022-12-04T05:24:49.503Z,64.43
2022-12-04T05:27:15.836Z,60.17
2022-12-04T05:29:42.202Z,58.42
2022-12-04T05:32:08.537Z,62.20
2022-12-04T05:34:34.908Z,58.92
2022-12-04T05:37:01.191Z,61.72
2022-12-04T05:39:27.594Z,58.80
2022-12-04T05:41:53.875Z,56.63
2022-12-04T05:44:20.380Z,53.55
2022-12-04T05:46:46.853Z,57.45
2022-12-04T05:49:13.243Z,62.45
2022-12-04T05:51:39.581Z,60.80
2022-12-04T05:54:05.944Z,61.75
2022-12-04T05:56:32.240Z,62.75
2022-12-04T05:58:58.599Z,62.67
2022-12-04T06:01:24.908Z,69.85
2022-12-04T06:03:51.212Z,60.67
2022-12-04T06:06:21.869Z,58.22
2022-12-04T06:08:49.393Z,56.72
2022-12-04T06:11:20.077Z,68.13
2022-12-04T06:13:46.391Z,56.63
2022-12-04T06:16:16.515Z,58.97
2022-12-04T06:18:42.980Z,59.80
2022-12-04T06:21:09.814Z,56.75
2022-12-04T06:23:36.175Z,60.00
2022-12-04T06:26:07.251Z,54.67
2022-12-04T06:28:34.376Z,61.50
2022-12-04T06:31:01.339Z,56.08
2022-12-04T06:33:28.011Z,62.28
2022-12-04T06:35:58.162Z,61.72
2022-12-04T06:38:24.522Z,49.60
2022-12-04T06:40:50.850Z,58.03
2022-12-04T06:43:17.140Z,54.95
2022-12-04T06:45:43.505Z,59.88
2022-12-04T06:48:09.956Z,53.30
2022-12-04T06:50:36.379Z,52.78
2022-12-04T06:53:08.126Z,60.92
2022-12-04T06:55:34.829Z,52.60
2022-12-04T06:58:01.161Z,56.10
2022-12-04T07:00:27.546Z,57.30
2022-12-04T07:02:53.873Z,55.97
2022-12-04T07:05:20.382Z,58.30
2022-12-04T07:07:46.801Z,60.72
2022-12-04T07:10:13.219Z,54.13
2022-12-04T07:12:39.649Z,53.13
2022-12-04T07:15:06.221Z,53.30
2022-12-04T07:17:32.768Z,57.08
2022-12-04T07:19:59.213Z,55.05
2022-12-04T07:22:26.324Z,56.60
2022-12-04T07:24:52.744Z,50.95
2022-12-04T07:27:19.089Z,54.67
2022-12-04T07:29:45.537Z,57.05
2022-12-04T07:32:12.131Z,56.03
2022-12-04T07:34:38.455Z,57.67
2022-12-04T07:37:04.799Z,57.78
2022-12-04T07:39:31.309Z,54.72
2022-12-04T07:41:57.618Z,59.22
2022-12-04T07:44:24.083Z,55.35
2022-12-04T07:46:50.447Z,59.13
2022-12-04T07:49:16.852Z,58.00
2022-12-04T07:51:43.237Z,58.40
2022-12-04T07:54:09.677Z,56.30
2022-12-04T07:56:36.105Z,51.33
2022-12-04T07:59:02.533Z,61.67
2022-12-04T08:01:29.427Z,57.78
2022-12-04T08:03:57.823Z,52.40
2022-12-04T08:06:25.365Z,62.42
2022-12-04T08:08:52.252Z,51.85
2022-12-04T08:11:19.580Z,63.80
2022-12-04T08:13:46.000Z,61.80
2022-12-04T08:16:12.865Z,52.88
2022-12-04T08:18:40.251Z,53.15
2022-12-04T08:21:10.828Z,57.63
2022-12-04T08:23:37.557Z,62.70
2022-12-04T08:26:04.532Z,54.47
2022-12-04T08:28:30.866Z,57.78
2022-12-04T08:31:02.423Z,55.30
2022-12-04T08:33:28.722Z,58.50
2022-12-04T08:35:55.058Z,63.10
2022-12-04T08:38:21.417Z,57.33
2022-12-04T08:40:47.734Z,53.47
2022-12-04T08:43:14.147Z,59.53
2022-12-04T08:45:40.609Z,55.30
2022-12-04T08:48:06.976Z,56.38
2022-12-04T08:50:33.369Z,53.03
2022-12-04T08:52:59.724Z,51.47
2022-12-04T08:55:25.972Z,55.22
2022-12-04T08:57:52.772Z,56.95
2022-12-04T09:00:19.412Z,53.50
2022-12-04T09:02:48.284Z,57.33
2022-12-04T09:05:14.813Z,55.50
2022-12-04T09:07:41.142Z,59.80
2022-12-04T09:10:07.715Z,52.25
2022-12-04T09:12:34.005Z,52.08
2022-12-04T09:15:00.317Z,51.80
2022-12-04T09:17:26.644Z,56.00
2022-12-04T09:19:55.560Z,49.55
2022-12-04T09:22:25.617Z,51.13
2022-12-04T09:24:51.878Z,50.33
2022-12-04T09:27:18.148Z,60.40
2022-12-04T09:29:44.423Z,57.90
2022-12-04T09:32:10.665Z,44.33
2022-12-04T09:34:37.104Z,50.10
2022-12-04T09:37:03.428Z,53.53
2022-12-04T09:39:29.728Z,53.47
2022-12-04T09:42:11.532Z,53.33
2022-12-04T09:44:43.937Z,54.03
2022-12-04T09:47:19.103Z,51.17
2022-12-04T09:50:24.040Z,56.88
2022-12-04T09:52:59.714Z,54.03
2022-12-04T09:55:32.246Z,51.38
2022-12-04T09:58:02.473Z,50.80
2022-12-04T10:00:30.500Z,51.80
2022-12-04T10:03:10.109Z,54.13
2022-12-04T10:05:50.879Z,47.85
2022-12-04T10:08:35.453Z,49.00
2022-12-04T10:11:21.897Z,44.72
2022-12-04T10:13:48.256Z,49.42
2022-12-04T10:16:20.970Z,44.78
2022-12-04T10:18:47.277Z,46.80
2022-12-04T10:21:29.060Z,42.92
2022-12-04T10:24:01.810Z,48.08
2022-12-04T10:26:30.848Z,43.08
2022-12-04T10:29:02.540Z,40.35
2022-12-04T10:31:30.080Z,44.05
2022-12-04T10:34:01.224Z,40.90
2022-12-04T10:36:32.524Z,38.33
2022-12-04T10:39:19.619Z,38.65
2022-12-04T10:41:45.929Z,45.30
2022-12-04T10:44:14.696Z,35.10
2022-12-04T10:46:45.723Z,42.97
2022-12-04T10:49:34.472Z,38.97
2022-12-04T10:52:00.886Z,34.80
2022-12-04T10:54:27.183Z,37.88
2022-12-04T10:56:57.878Z,35.15
2022-12-04T10:59:24.691Z,36.97
2022-12-04T11:01:52.474Z,31.23
2022-12-04T11:04:29.437Z,36.97
2022-12-04T11:07:03.221Z,31.80
2022-12-04T11:09:30.432Z,33.42
2022-12-04T11:12:05.163Z,35.03
2022-12-04T11:14:31.771Z,34.97
2022-12-04T11:17:03.464Z,32.80
2022-12-04T11:19:31.159Z,34.70
2022-12-04T11:22:00.174Z,30.63
2022-12-04T11:24:29.340Z,31.85
2022-12-04T11:26:56.654Z,32.10
2022-12-04T11:29:27.429Z,28.55
2022-12-04T11:31:55.331Z,31.08
2022-12-04T11:34:23.703Z,26.50
2022-12-04T11:36:54.400Z,31.25
2022-12-04T11:39:27.070Z,26.25
2022-12-04T11:42:19.629Z,28.10
2022-12-04T11:44:52.941Z,25.38
2022-12-04T11:47:20.263Z,26.27
2022-12-04T11:49:57.883Z,28.05
2022-12-04T11:52:30.475Z,30.75
2022-12-04T11:55:02.152Z,30.48
2022-12-04T11:57:34.493Z,27.23
2022-12-04T12:00:24.293Z,27.25
2022-12-04T12:03:09.520Z,28.27
2022-12-04T12:05:54.609Z,27.08
2022-12-04T12:08:36.216Z,25.80
2022-12-04T12:11:10.954Z,25.33
2022-12-04T12:13:37.535Z,28.33
2022-12-04T12:16:13.094Z,25.50
2022-12-04T12:18:45.582Z,21.67
2022-12-04T12:21:11.935Z,24.58
2022-12-04T12:23:46.231Z,23.83
2022-12-04T12:26:13.894Z,22.98
2022-12-04T12:28:58.906Z,23.67
2022-12-04T12:31:43.242Z,21.50
2022-12-04T12:34:31.270Z,25.85
2022-12-04T12:37:03.536Z,24.00
2022-12-04T12:39:52.217Z,23.90
2022-12-04T12:42:25.039Z,28.17
2022-12-04T12:44:59.791Z,24.20
2022-12-04T12:47:30.852Z,23.05
2022-12-04T12:52:43.254Z,24.52
2022-12-04T12:55:39.723Z,26.30
2022-12-04T12:58:10.710Z,25.77
2022-12-04T13:03:05.027Z,22.58
2022-12-04T13:05:34.981Z,23.35
2022-12-04T13:08:04.543Z,24.00
2022-12-04T13:10:43.484Z,24.13
2022-12-04T13:13:27.074Z,25.58
2022-12-04T13:15:59.047Z,22.50
2022-12-04T13:18:32.596Z,22.50
2022-12-04T13:21:01.249Z,27.27
2022-12-04T13:23:48.172Z,24.60
2022-12-04T13:26:24.011Z,23.83
2022-12-04T13:29:03.075Z,21.83
2022-12-04T13:31:59.161Z,24.20
2022-12-04T13:34:47.791Z,23.20
2022-12-04T13:37:37.440Z,20.00
2022-12-04T13:43:38.822Z,22.17
2022-12-04T13:46:07.298Z,23.13
2022-12-04T13:48:44.342Z,23.40
2022-12-04T13:51:23.676Z,23.45
2022-12-04T13:54:00.459Z,26.38
2022-12-04T13:56:28.171Z,25.73
2022-12-04T13:59:02.154Z,29.05
2022-12-04T14:01:31.051Z,30.60
2022-12-04T14:03:59.478Z,27.58
2022-12-04T14:06:27.861Z,26.02
2022-12-04T14:08:58.588Z,25.38
2022-12-04T14:11:25.633Z,27.92
2022-12-04T14:13:56.481Z,26.38
2022-12-04T14:18:51.700Z,26.85
2022-12-04T14:21:18.264Z,25.85
2022-12-04T14:23:44.787Z,27.65
2022-12-04T14:26:21.797Z,26.55
2022-12-04T14:28:48.890Z,28.45
2022-12-04T14:31:23.615Z,29.45
2022-12-04T14:34:01.478Z,28.10
2022-12-04T14:36:34.931Z,30.92
2022-12-04T14:39:08.079Z,28.17
2022-12-04T14:41:34.571Z,28.83
2022-12-04T14:44:01.055Z,31.92
2022-12-04T14:46:30.548Z,31.63
2022-12-04T14:49:15.584Z,35.28
2022-12-04T14:51:47.236Z,30.85
2022-12-04T14:54:25.037Z,31.55
2022-12-04T14:56:59.944Z,32.55
2022-12-04T14:59:33.780Z,35.08
2022-12-04T15:02:00.270Z,31.23
2022-12-04T15:04:29.126Z,34.92
2022-12-04T15:06:59.927Z,39.58
2022-12-04T15:09:45.836Z,35.15
2022-12-04T15:12:34.618Z,37.65
2022-12-04T15:15:19.576Z,37.15
2022-12-04T15:18:15.575Z,37.30
2022-12-04T15:20:41.815Z,40.25
2022-12-04T15:23:12.935Z,41.35
2022-12-04T15:25:56.317Z,42.78
2022-12-04T15:28:28.495Z,40.58
2022-12-04T15:30:56.612Z,40.47
2022-12-04T15:33:25.426Z,38.20
2022-12-04T15:35:54.269Z,45.00
2022-12-04T15:38:20.820Z,42.70
2022-12-04T15:40:53.984Z,43.35
2022-12-04T15:43:40.205Z,40.53
2022-12-04T15:46:13.613Z,45.92
2022-12-04T15:48:43.817Z,47.17
2022-12-04T15:51:14.317Z,44.53
2022-12-04T15:53:43.911Z,48.35
2022-12-04T15:56:16.519Z,41.08
2022-12-04T15:58:51.929Z,42.50
2022-12-04T16:01:18.334Z,40.63
2022-12-04T16:03:44.700Z,43.50
2022-12-04T16:06:23.204Z,43.70
2022-12-04T16:08:54.089Z,44.75
2022-12-04T16:13:48.014Z,48.08
2022-12-04T16:16:16.237Z,49.53
2022-12-04T16:18:44.548Z,44.25
2022-12-04T16:21:14.438Z,44.00
2022-12-04T16:23:40.701Z,46.25
2022-12-04T16:26:11.778Z,47.22
2022-12-04T16:28:38.064Z,46.10
2022-12-04T16:31:07.755Z,41.88
2022-12-04T16:33:34.038Z,42.90
2022-12-04T16:36:00.305Z,47.22
2022-12-04T16:38:26.708Z,45.10
2022-12-04T16:40:53.166Z,47.58
2022-12-04T16:43:19.500Z,44.20
2022-12-04T16:45:55.027Z,46.05
2022-12-04T16:48:21.417Z,44.60
2022-12-04T16:50:47.776Z,42.65
2022-12-04T16:53:18.261Z,37.13
2022-12-04T16:55:48.691Z,49.13
2022-12-04T16:58:15.277Z,43.33
2022-12-04T17:00:43.612Z,44.00
2022-12-04T17:03:17.645Z,40.67
2022-12-04T17:05:44.016Z,43.08
2022-12-04T17:08:10.384Z,42.80
2022-12-04T17:10:36.699Z,44.88
2022-12-04T17:13:03.090Z,40.17
2022-12-04T17:15:29.384Z,41.60
2022-12-04T17:17:55.663Z,44.65
2022-12-04T17:20:21.983Z,52.13
2022-12-04T17:22:49.050Z,37.88
2022-12-04T17:25:15.934Z,43.85
2022-12-04T17:27:42.614Z,42.15
2022-12-04T17:30:09.763Z,46.00
2022-12-04T17:32:36.122Z,38.72
2022-12-04T17:35:03.347Z,42.13
2022-12-04T17:37:30.950Z,43.58
2022-12-04T17:39:57.252Z,45.25
2022-12-04T17:42:23.628Z,42.10
2022-12-04T17:44:49.982Z,44.10
2022-12-04T17:47:16.482Z,42.88
2022-12-04T17:49:43.081Z,39.97
2022-12-04T17:52:09.364Z,44.50
2022-12-04T17:54:35.864Z,44.45
2022-12-04T17:57:02.254Z,43.90
2022-12-04T17:59:28.633Z,43.97
2022-12-04T18:01:55.038Z,43.63
2022-12-04T18:04:21.425Z,49.25
2022-12-04T18:06:47.886Z,42.20
2022-12-04T18:09:15.659Z,42.17
2022-12-04T18:11:43.204Z,39.47
2022-12-04T18:14:12.514Z,37.20
2022-12-04T18:16:45.148Z,39.78
2022-12-04T18:19:12.123Z,37.30
2022-12-04T18:21:38.842Z,39.63
2022-12-04T18:24:05.549Z,35.20
2022-12-04T18:26:36.667Z,34.88
2022-12-04T18:29:03.647Z,35.50
2022-12-04T18:31:29.977Z,39.47
2022-12-04T18:33:56.395Z,39.80
2022-12-04T18:36:26.399Z,33.13
2022-12-04T18:38:53.936Z,37.67
2022-12-04T18:41:20.231Z,36.03
2022-12-04T18:43:46.606Z,35.92
2022-12-04T18:46:14.460Z,37.42
2022-12-04T18:48:41.052Z,35.75
2022-12-04T18:51:13.733Z,34.10
2022-12-04T18:53:40.415Z,38.42
2022-12-04T18:56:07.300Z,39.00
2022-12-04T18:58:33.831Z,39.45
2022-12-04T19:01:10.541Z,41.63
2022-12-04T19:03:37.166Z,41.85
2022-12-04T19:06:03.628Z,41.10
2022-12-04T19:08:33.725Z,45.20
2022-12-04T19:11:08.120Z,46.17
2022-12-04T19:13:38.347Z,47.67
2022-12-04T19:16:04.831Z,42.30
2022-12-04T19:18:31.416Z,47.97
2022-12-04T19:20:57.888Z,45.30
2022-12-04T19:23:24.304Z,49.60
2022-12-04T19:25:57.371Z,53.67
2022-12-04T19:28:24.158Z,47.40
2022-12-04T19:30:50.521Z,45.58
2022-12-04T19:33:17.130Z,50.80
2022-12-04T19:35:44.706Z,47.65
2022-12-04T19:38:10.990Z,55.65
2022-12-04T19:40:37.399Z,49.58
2022-12-04T19:43:03.695Z,50.05
2022-12-04T19:45:30.001Z,51.65
2022-12-04T19:47:56.497Z,52.03
2022-12-04T19:50:22.848Z,51.38
2022-12-04T19:52:49.686Z,49.88
2022-12-04T19:55:16.065Z,56.42
2022-12-04T19:57:42.394Z,58.72
2022-12-04T20:00:09.014Z,53.30
2022-12-04T20:02:35.596Z,50.63
2022-12-04T20:05:02.019Z,51.75
2022-12-04T20:07:28.477Z,55.47
2022-12-04T20:09:54.836Z,54.40
2022-12-04T20:12:21.199Z,49.72
2022-12-04T20:14:47.575Z,56.40
2022-12-04T20:17:13.912Z,48.47
2022-12-04T20:19:40.597Z,52.58
2022-12-04T20:22:06.948Z,54.75
2022-12-04T20:24:33.336Z,54.80
2022-12-04T20:26:59.729Z,51.17
2022-12-04T20:29:26.069Z,55.15
2022-12-04T20:31:53.491Z,51.78
2022-12-04T20:34:19.862Z,51.42
2022-12-04T20:36:47.120Z,49.88
2022-12-04T20:39:14.139Z,60.75
2022-12-04T20:41:40.953Z,50.60
2022-12-04T20:44:08.387Z,57.17
2022-12-04T20:46:36.222Z,58.38
2022-12-04T20:49:04.247Z,48.88
2022-12-04T20:51:32.742Z,55.30
2022-12-04T20:53:59.869Z,60.45
2022-12-04T20:56:30.479Z,52.67
2022-12-04T20:58:58.166Z,56.28
2022-12-04T21:01:24.941Z,54.75
2022-12-04T21:03:51.697Z,55.28
2022-12-04T21:06:31.046Z,52.40
2022-12-04T21:09:02.086Z,55.15
2022-12-04T21:11:36.006Z,57.05
2022-12-04T21:14:21.432Z,55.17
2022-12-04T21:16:47.867Z,56.53
2022-12-04T21:19:14.992Z,53.70
2022-12-04T21:21:41.293Z,51.15
2022-12-04T21:24:08.569Z,56.00
2022-12-04T21:26:34.990Z,55.80
2022-12-04T21:29:01.903Z,53.63
2022-12-04T21:31:28.815Z,52.25
2022-12-04T21:33:56.125Z,58.50
2022-12-04T21:36:22.399Z,52.75
2022-12-04T21:38:48.985Z,50.42
2022-12-04T21:41:35.312Z,60.40
2022-12-04T21:44:08.698Z,53.20
2022-12-04T21:46:35.282Z,51.92
2022-12-04T21:49:01.626Z,56.67
2022-12-04T21:51:55.869Z,46.33
2022-12-04T21:54:14.293Z,57.70
2022-12-04T21:56:40.596Z,52.50
2022-12-04T21:59:07.320Z,58.58
2022-12-04T22:01:33.752Z,52.72
2022-12-04T22:04:00.298Z,57.47
2022-12-04T22:06:28.075Z,57.17
2022-12-04T22:08:55.257Z,52.45
2022-12-04T22:11:22.057Z,53.65
2022-12-04T22:13:54.457Z,57.15
2022-12-04T22:16:25.596Z,53.22
2022-12-04T22:18:57.177Z,50.92
2022-12-04T22:21:23.971Z,54.90
2022-12-04T22:23:54.892Z,61.67
2022-12-04T22:28:47.440Z,51.83
2022-12-04T22:31:14.994Z,51.55
2022-12-04T22:33:42.103Z,56.65
2022-12-04T22:36:12.794Z,58.90
2022-12-04T22:38:52.631Z,55.08
2022-12-04T22:41:25.862Z,58.80
2022-12-04T22:43:52.214Z,57.38
2022-12-04T22:46:18.604Z,51.15
2022-12-04T22:48:44.926Z,59.55
2022-12-04T22:51:12.373Z,54.95
2022-12-04T22:53:49.039Z,52.15
2022-12-04T22:56:22.796Z,58.60
2022-12-04T22:58:49.244Z,57.65
2022-12-04T23:01:23.146Z,52.45
2022-12-04T23:03:49.662Z,55.70
2022-12-04T23:06:17.556Z,50.95
2022-12-04T23:08:44.513Z,53.90
2022-12-04T23:11:14.909Z,53.75
2022-12-04T23:13:41.667Z,52.72
2022-12-04T23:16:10.091Z,54.92
2022-12-04T23:18:37.587Z,62.42
2022-12-04T23:21:05.132Z,53.35
2022-12-04T23:23:32.485Z,49.63
2022-12-04T23:26:01.186Z,57.67
2022-12-04T23:28:27.508Z,47.30
2022-12-04T23:30:53.903Z,52.28
2022-12-04T23:33:20.332Z,47.80
2022-12-04T23:35:50.511Z,52.70
2022-12-04T23:38:16.834Z,55.83
2022-12-04T23:40:43.159Z,52.78
2022-12-04T23:43:09.468Z,54.25
2022-12-04T23:45:37.603Z,56.30
2022-12-04T23:48:04.096Z,54.08
2022-12-04T23:50:30.652Z,50.45
2022-12-04T23:52:56.967Z,50.08
2022-12-04T23:55:23.602Z,54.78
2022-12-04T23:57:50.555Z,53.58
